createdAt,value
2016-11-05T00:00:39.863Z,996.46
2016-11-05T00:01:39.879Z,996.4
2016-11-05T00:02:39.894Z,996.41
2016-11-05T00:03:39.910Z,996.38
2016-11-05T00:04:39.922Z,996.41
2016-11-05T00:05:39.941Z,996.41
2016-11-05T00:06:39.957Z,996.41
2016-11-05T00:07:39.971Z,996.36
2016-11-05T00:08:39.987Z,996.32
2016-11-05T00:09:40.003Z,996.36
2016-11-05T00:10:40.015Z,996.33
2016-11-05T00:11:40.030Z,996.32
2016-11-05T00:12:40.057Z,996.33
2016-11-05T00:13:40.065Z,996.32
2016-11-05T00:14:40.080Z,996.36
2016-11-05T00:15:40.093Z,996.34
2016-11-05T00:16:40.112Z,996.27
2016-11-05T00:17:40.128Z,996.28
2016-11-05T00:18:40.143Z,996.24
2016-11-05T00:19:40.158Z,996.23
2016-11-05T00:20:40.285Z,996.24
2016-11-05T00:21:40.262Z,996.23
2016-11-05T00:22:40.261Z,996.2
2016-11-05T00:23:40.543Z,996.19
2016-11-05T00:24:40.279Z,996.22
2016-11-05T00:25:40.287Z,996.19
2016-11-05T00:26:40.296Z,996.2
2016-11-05T00:27:40.304Z,996.21
2016-11-05T00:28:40.576Z,996.21
2016-11-05T00:29:40.317Z,996.18
2016-11-05T00:30:40.328Z,996.14
2016-11-05T00:31:40.464Z,996.14
2016-11-05T00:32:40.472Z,996.14
2016-11-05T00:33:40.472Z,996.13
2016-11-05T00:34:40.406Z,996.03
2016-11-05T00:35:40.416Z,996.07
2016-11-05T00:36:40.425Z,996.03
2016-11-05T00:37:40.537Z,996
2016-11-05T00:38:40.573Z,995.98
2016-11-05T00:39:40.554Z,995.93
2016-11-05T00:40:40.562Z,995.97
2016-11-05T00:41:40.569Z,995.93
2016-11-05T00:42:40.607Z,995.89
2016-11-05T00:43:40.632Z,995.99
2016-11-05T00:44:40.613Z,995.93
2016-11-05T00:45:40.622Z,995.96
2016-11-05T00:46:40.577Z,995.88
2016-11-05T00:47:40.592Z,995.9
2016-11-05T00:48:40.607Z,995.86
2016-11-05T00:49:40.624Z,995.79
2016-11-05T00:50:40.640Z,995.77
2016-11-05T00:51:40.655Z,995.83
2016-11-05T00:52:40.669Z,995.83
2016-11-05T00:53:40.686Z,995.78
2016-11-05T00:54:40.700Z,995.77
2016-11-05T00:55:40.712Z,995.77
2016-11-05T00:56:40.731Z,995.75
2016-11-05T00:57:40.747Z,995.72
2016-11-05T00:58:40.762Z,995.71
2016-11-05T00:59:40.778Z,995.7
2016-11-05T01:00:40.794Z,995.68
2016-11-05T01:01:40.809Z,995.66
2016-11-05T01:02:40.824Z,995.63
2016-11-05T01:03:40.840Z,995.63
2016-11-05T01:04:40.856Z,995.6
2016-11-05T01:05:40.866Z,995.58
2016-11-05T01:06:40.886Z,995.62
2016-11-05T01:07:40.903Z,995.61
2016-11-05T01:08:40.918Z,995.6
2016-11-05T01:09:40.932Z,995.63
2016-11-05T01:10:40.949Z,995.62
2016-11-05T01:11:40.960Z,995.66
2016-11-05T01:12:40.980Z,995.61
2016-11-05T01:13:40.995Z,995.59
2016-11-05T01:14:41.010Z,995.55
2016-11-05T01:15:41.027Z,995.53
2016-11-05T01:16:41.036Z,995.46
2016-11-05T01:17:41.056Z,995.48
2016-11-05T01:18:41.124Z,995.49
2016-11-05T01:19:41.089Z,995.47
2016-11-05T01:20:41.105Z,995.44
2016-11-05T01:21:41.115Z,995.45
2016-11-05T01:22:41.135Z,995.42
2016-11-05T01:23:41.150Z,995.4
2016-11-05T01:24:41.170Z,995.41
2016-11-05T01:25:41.178Z,995.43
2016-11-05T01:26:41.198Z,995.42
2016-11-05T01:27:41.214Z,995.4
2016-11-05T01:28:41.228Z,995.38
2016-11-05T01:29:41.240Z,995.4
2016-11-05T01:30:41.259Z,995.41
2016-11-05T01:31:41.274Z,995.41
2016-11-05T01:32:41.290Z,995.42
2016-11-05T01:33:41.306Z,995.39
2016-11-05T01:34:41.322Z,995.37
2016-11-05T01:35:41.332Z,995.36
2016-11-05T01:36:41.352Z,995.36
2016-11-05T01:37:41.364Z,995.36
2016-11-05T01:38:41.378Z,995.34
2016-11-05T01:39:41.398Z,995.3
2016-11-05T01:40:41.416Z,995.26
2016-11-05T01:41:41.430Z,995.21
2016-11-05T01:42:41.440Z,995.18
2016-11-05T01:43:41.461Z,995.15
2016-11-05T01:44:41.476Z,995.16
2016-11-05T01:45:41.490Z,995.16
2016-11-05T01:46:41.505Z,995.16
2016-11-05T01:47:41.522Z,995.18
2016-11-05T01:48:41.538Z,995.18
2016-11-05T01:49:41.552Z,995.14
2016-11-05T01:50:41.568Z,995.17
2016-11-05T01:51:41.585Z,995.11
2016-11-05T01:52:41.600Z,995.11
2016-11-05T01:53:41.615Z,995.07
2016-11-05T01:54:41.630Z,995.11
2016-11-05T01:55:41.647Z,995.06
2016-11-05T01:56:41.661Z,995.05
2016-11-05T01:57:41.677Z,995.06
2016-11-05T01:58:41.695Z,994.99
2016-11-05T01:59:41.708Z,995.01
2016-11-05T02:00:41.722Z,995
2016-11-05T02:01:41.739Z,994.99
2016-11-05T02:02:41.755Z,994.95
2016-11-05T02:03:41.770Z,994.93
2016-11-05T02:04:41.780Z,994.92
2016-11-05T02:05:41.798Z,994.94
2016-11-05T02:06:41.812Z,994.9
2016-11-05T02:07:41.831Z,994.95
2016-11-05T02:08:41.847Z,994.89
2016-11-05T02:09:41.858Z,994.87
2016-11-05T02:10:41.878Z,994.87
2016-11-05T02:11:41.889Z,994.85
2016-11-05T02:12:41.909Z,994.85
2016-11-05T02:13:41.924Z,994.81
2016-11-05T02:14:41.936Z,994.76
2016-11-05T02:15:41.955Z,994.7
2016-11-05T02:16:41.970Z,994.71
2016-11-05T02:17:41.989Z,994.66
2016-11-05T02:18:42.002Z,994.66
2016-11-05T02:19:42.018Z,994.59
2016-11-05T02:20:42.039Z,994.59
2016-11-05T02:21:42.048Z,994.57
2016-11-05T02:22:42.059Z,994.53
2016-11-05T02:23:42.074Z,994.5
2016-11-05T02:24:42.090Z,994.47
2016-11-05T02:25:42.105Z,994.41
2016-11-05T02:26:42.124Z,994.4
2016-11-05T02:27:42.140Z,994.36
2016-11-05T02:28:42.156Z,994.48
2016-11-05T02:29:42.167Z,994.45
2016-11-05T02:30:42.183Z,994.35
2016-11-05T02:31:42.202Z,994.32
2016-11-05T02:32:42.214Z,994.32
2016-11-05T02:33:42.233Z,994.33
2016-11-05T02:34:42.244Z,994.29
2016-11-05T02:35:42.264Z,994.24
2016-11-05T02:36:42.279Z,994.22
2016-11-05T02:37:42.290Z,994.2
2016-11-05T02:38:42.309Z,994.2
2016-11-05T02:39:42.329Z,994.16
2016-11-05T02:40:42.341Z,994.13
2016-11-05T02:41:42.352Z,994.1
2016-11-05T02:42:42.372Z,994.09
2016-11-05T02:43:42.383Z,994.03
2016-11-05T02:44:42.400Z,993.96
2016-11-05T02:45:42.414Z,993.95
2016-11-05T02:46:42.430Z,993.93
2016-11-05T02:47:42.445Z,993.96
2016-11-05T02:48:42.460Z,993.97
2016-11-05T02:49:42.475Z,993.96
2016-11-05T02:50:42.491Z,993.98
2016-11-05T02:51:42.510Z,994
2016-11-05T02:52:42.522Z,994.02
2016-11-05T02:53:42.537Z,994.02
2016-11-05T02:54:42.552Z,994.04
2016-11-05T02:55:42.567Z,994.03
2016-11-05T02:56:42.588Z,993.96
2016-11-05T02:57:42.600Z,994.01
2016-11-05T02:58:42.615Z,993.98
2016-11-05T02:59:42.635Z,994.01
2016-11-05T03:00:42.651Z,994
2016-11-05T03:01:42.662Z,994.02
2016-11-05T03:02:42.677Z,993.99
2016-11-05T03:03:42.693Z,993.96
2016-11-05T03:04:42.709Z,993.97
2016-11-05T03:05:42.729Z,993.92
2016-11-05T03:06:42.740Z,993.93
2016-11-05T03:07:42.764Z,993.94
2016-11-05T03:08:42.771Z,993.95
2016-11-05T03:09:42.786Z,993.91
2016-11-05T03:10:42.802Z,993.95
2016-11-05T03:11:42.819Z,993.94
2016-11-05T03:12:42.835Z,993.92
2016-11-05T03:13:42.849Z,993.88
2016-11-05T03:14:42.864Z,993.87
2016-11-05T03:15:42.881Z,993.85
2016-11-05T03:16:42.900Z,993.8
2016-11-05T03:17:42.911Z,993.79
2016-11-05T03:18:42.927Z,993.78
2016-11-05T03:19:42.943Z,993.76
2016-11-05T03:20:42.957Z,993.74
2016-11-05T03:21:42.973Z,993.76
2016-11-05T03:22:42.989Z,993.77
2016-11-05T03:23:43.005Z,993.71
2016-11-05T03:24:43.020Z,993.7
2016-11-05T03:25:43.035Z,993.61
2016-11-05T03:26:43.051Z,993.56
2016-11-05T03:27:43.070Z,993.51
2016-11-05T03:28:43.084Z,993.43
2016-11-05T03:29:43.098Z,993.49
2016-11-05T03:30:43.114Z,993.52
2016-11-05T03:31:43.128Z,993.47
2016-11-05T03:32:43.144Z,993.43
2016-11-05T03:33:43.160Z,993.38
2016-11-05T03:34:43.179Z,993.43
2016-11-05T03:35:43.190Z,993.39
2016-11-05T03:36:43.206Z,993.41
2016-11-05T03:37:43.222Z,993.35
2016-11-05T03:38:43.238Z,993.36
2016-11-05T03:39:43.253Z,993.32
2016-11-05T03:40:43.269Z,993.33
2016-11-05T03:41:43.285Z,993.34
2016-11-05T03:42:43.299Z,993.3
2016-11-05T03:43:43.315Z,993.27
2016-11-05T03:44:43.331Z,993.25
2016-11-05T03:45:43.348Z,993.28
2016-11-05T03:46:43.363Z,993.31
2016-11-05T03:47:43.377Z,993.3
2016-11-05T03:48:43.393Z,993.3
2016-11-05T03:49:43.410Z,993.29
2016-11-05T03:50:43.425Z,993.26
2016-11-05T03:51:43.440Z,993.26
2016-11-05T03:52:43.456Z,993.26
2016-11-05T03:53:43.471Z,993.27
2016-11-05T03:54:43.486Z,993.23
2016-11-05T03:55:43.502Z,993.32
2016-11-05T03:56:43.518Z,993.34
2016-11-05T03:57:43.533Z,993.31
2016-11-05T03:58:43.548Z,993.28
2016-11-05T03:59:43.565Z,993.26
2016-11-05T04:00:43.581Z,993.25
2016-11-05T04:01:43.594Z,993.19
2016-11-05T04:02:43.612Z,993.21
2016-11-05T04:03:43.627Z,993.19
2016-11-05T04:04:43.645Z,993.23
2016-11-05T04:05:43.657Z,993.19
2016-11-05T04:06:43.674Z,993.22
2016-11-05T04:07:43.690Z,993.2
2016-11-05T04:08:43.705Z,993.19
2016-11-05T04:09:43.720Z,993.15
2016-11-05T04:10:43.736Z,993.09
2016-11-05T04:11:43.755Z,993.12
2016-11-05T04:12:43.769Z,993.09
2016-11-05T04:13:43.782Z,993.09
2016-11-05T04:14:43.799Z,993.05
2016-11-05T04:15:44.014Z,993.03
2016-11-05T04:16:43.830Z,993.08
2016-11-05T04:17:43.847Z,993.07
2016-11-05T04:18:43.864Z,993.08
2016-11-05T04:19:43.878Z,993.07
2016-11-05T04:20:43.892Z,993.07
2016-11-05T04:21:43.911Z,993.03
2016-11-05T04:22:43.923Z,992.97
2016-11-05T04:23:43.938Z,992.95
2016-11-05T04:24:43.954Z,992.89
2016-11-05T04:25:43.970Z,992.84
2016-11-05T04:26:43.986Z,992.78
2016-11-05T04:27:44.002Z,992.77
2016-11-05T04:28:44.017Z,992.73
2016-11-05T04:29:44.032Z,992.72
2016-11-05T04:30:44.047Z,992.66
2016-11-05T04:31:44.063Z,992.62
2016-11-05T04:32:44.079Z,992.6
2016-11-05T04:33:44.095Z,992.58
2016-11-05T04:34:44.111Z,992.55
2016-11-05T04:35:44.127Z,992.5
2016-11-05T04:36:44.142Z,992.45
2016-11-05T04:37:44.157Z,992.47
2016-11-05T04:38:44.175Z,992.47
2016-11-05T04:39:44.189Z,992.49
2016-11-05T04:40:44.206Z,992.5
2016-11-05T04:41:44.220Z,992.52
2016-11-05T04:42:44.235Z,992.5
2016-11-05T04:43:44.251Z,992.45
2016-11-05T04:44:44.266Z,992.42
2016-11-05T04:45:44.282Z,992.36
2016-11-05T04:46:44.298Z,992.36
2016-11-05T04:47:44.315Z,992.29
2016-11-05T04:48:44.328Z,992.3
2016-11-05T04:49:44.344Z,992.31
2016-11-05T04:50:44.360Z,992.28
2016-11-05T04:51:44.376Z,992.2
2016-11-05T04:52:44.391Z,992.17
2016-11-05T04:53:44.407Z,992.14
2016-11-05T04:54:44.423Z,992.15
2016-11-05T04:55:44.437Z,992.1
2016-11-05T04:56:44.453Z,992.1
2016-11-05T04:57:44.470Z,992.08
2016-11-05T04:58:44.484Z,992.05
2016-11-05T04:59:44.499Z,991.96
2016-11-05T05:00:44.516Z,991.98
2016-11-05T05:01:44.532Z,991.96
2016-11-05T05:02:44.547Z,991.95
2016-11-05T05:03:44.566Z,991.96
2016-11-05T05:04:44.579Z,992.05
2016-11-05T05:05:44.593Z,992.05
2016-11-05T05:06:44.609Z,992.08
2016-11-05T05:07:44.625Z,992.08
2016-11-05T05:08:44.641Z,992.05
2016-11-05T05:09:44.658Z,992.03
2016-11-05T05:10:44.672Z,992.03
2016-11-05T05:11:44.687Z,992.03
2016-11-05T05:12:44.703Z,992.06
2016-11-05T05:13:44.719Z,992.05
2016-11-05T05:14:44.734Z,992.03
2016-11-05T05:15:44.751Z,992.01
2016-11-05T05:16:44.766Z,992.01
2016-11-05T05:17:44.782Z,992.02
2016-11-05T05:18:44.797Z,991.96
2016-11-05T05:19:44.812Z,991.98
2016-11-05T05:20:44.828Z,991.95
2016-11-05T05:21:44.844Z,991.92
2016-11-05T05:22:44.859Z,991.91
2016-11-05T05:23:44.875Z,991.93
2016-11-05T05:24:44.892Z,991.91
2016-11-05T05:25:44.906Z,991.93
2016-11-05T05:26:44.922Z,991.91
2016-11-05T05:27:44.937Z,991.89
2016-11-05T05:28:44.953Z,991.87
2016-11-05T05:29:44.969Z,991.9
2016-11-05T05:30:44.984Z,991.93
2016-11-05T05:31:45.000Z,991.92
2016-11-05T05:32:45.016Z,991.93
2016-11-05T05:33:45.030Z,991.91
2016-11-05T05:34:45.046Z,991.91
2016-11-05T05:35:45.063Z,991.87
2016-11-05T05:36:45.078Z,991.9
2016-11-05T05:37:45.093Z,991.9
2016-11-05T05:38:45.110Z,991.9
2016-11-05T05:39:45.123Z,991.93
2016-11-05T05:40:45.141Z,991.95
2016-11-05T05:41:45.155Z,991.97
2016-11-05T05:42:45.171Z,991.93
2016-11-05T05:43:45.186Z,991.94
2016-11-05T05:44:45.202Z,992.01
2016-11-05T05:45:45.218Z,992.03
2016-11-05T05:46:45.234Z,991.99
2016-11-05T05:47:45.250Z,992.02
2016-11-05T05:48:45.264Z,991.98
2016-11-05T05:49:45.280Z,991.97
2016-11-05T05:50:45.295Z,991.99
2016-11-05T05:51:45.311Z,991.94
2016-11-05T05:52:45.327Z,991.89
2016-11-05T05:53:45.347Z,991.86
2016-11-05T05:54:45.357Z,991.84
2016-11-05T05:55:45.373Z,991.82
2016-11-05T05:56:45.389Z,991.85
2016-11-05T05:57:45.404Z,991.81
2016-11-05T05:58:45.420Z,991.75
2016-11-05T05:59:45.435Z,991.75
2016-11-05T06:00:45.452Z,991.75
2016-11-05T06:01:45.466Z,991.78
2016-11-05T06:02:45.482Z,991.77
2016-11-05T06:03:45.498Z,991.79
2016-11-05T06:04:45.513Z,991.77
2016-11-05T06:05:45.528Z,991.74
2016-11-05T06:06:45.544Z,991.7
2016-11-05T06:07:45.559Z,991.7
2016-11-05T06:08:45.576Z,991.72
2016-11-05T06:09:45.592Z,991.77
2016-11-05T06:10:45.608Z,991.68
2016-11-05T06:11:45.623Z,991.65
2016-11-05T06:12:45.638Z,991.67
2016-11-05T06:13:45.654Z,991.65
2016-11-05T06:14:45.669Z,991.67
2016-11-05T06:15:45.684Z,991.68
2016-11-05T06:16:45.699Z,991.66
2016-11-05T06:17:45.715Z,991.69
2016-11-05T06:18:45.732Z,991.72
2016-11-05T06:19:45.747Z,991.73
2016-11-05T06:20:45.762Z,991.74
2016-11-05T06:21:45.777Z,991.73
2016-11-05T06:22:45.795Z,991.76
2016-11-05T06:23:45.808Z,991.78
2016-11-05T06:24:45.825Z,991.76
2016-11-05T06:25:45.841Z,991.71
2016-11-05T06:26:45.856Z,991.72
2016-11-05T06:27:45.872Z,991.66
2016-11-05T06:28:45.886Z,991.63
2016-11-05T06:29:45.902Z,991.64
2016-11-05T06:30:45.919Z,991.59
2016-11-05T06:31:45.934Z,991.54
2016-11-05T06:32:45.949Z,991.54
2016-11-05T06:33:45.964Z,991.52
2016-11-05T06:34:45.980Z,991.54
2016-11-05T06:35:45.995Z,991.55
2016-11-05T06:36:46.011Z,991.56
2016-11-05T06:37:46.027Z,991.56
2016-11-05T06:38:46.042Z,991.52
2016-11-05T06:39:46.057Z,991.57
2016-11-05T06:40:46.073Z,991.53
2016-11-05T06:41:46.088Z,991.53
2016-11-05T06:42:46.106Z,991.51
2016-11-05T06:43:46.120Z,991.46
2016-11-05T06:44:46.135Z,991.41
2016-11-05T06:45:46.157Z,991.37
2016-11-05T06:46:46.165Z,991.35
2016-11-05T06:47:46.180Z,991.35
2016-11-05T06:48:46.196Z,991.37
2016-11-05T06:49:46.211Z,991.34
2016-11-05T06:50:46.226Z,991.35
2016-11-05T06:51:46.242Z,991.38
2016-11-05T06:52:46.257Z,991.36
2016-11-05T06:53:46.272Z,991.33
2016-11-05T06:54:46.288Z,991.32
2016-11-05T06:55:46.304Z,991.3
2016-11-05T06:56:46.339Z,991.29
2016-11-05T06:57:46.334Z,991.31
2016-11-05T06:58:46.350Z,991.29
2016-11-05T06:59:46.365Z,991.3
2016-11-05T07:00:46.380Z,991.26
2016-11-05T07:01:46.396Z,991.26
2016-11-05T07:02:46.411Z,991.21
2016-11-05T07:03:46.426Z,991.21
2016-11-05T07:04:46.441Z,991.25
2016-11-05T07:05:46.457Z,991.22
2016-11-05T07:06:46.473Z,991.17
2016-11-05T07:07:46.489Z,991.15
2016-11-05T07:08:46.504Z,991.14
2016-11-05T07:09:46.519Z,991.14
2016-11-05T07:10:46.536Z,991.09
2016-11-05T07:11:46.550Z,991.07
2016-11-05T07:12:46.565Z,991.05
2016-11-05T07:13:46.584Z,991.01
2016-11-05T07:14:46.596Z,991.04
2016-11-05T07:15:46.611Z,991.01
2016-11-05T07:16:46.627Z,991.05
2016-11-05T07:17:46.643Z,991
2016-11-05T07:18:46.657Z,990.99
2016-11-05T07:19:46.673Z,990.99
2016-11-05T07:20:46.689Z,991.02
2016-11-05T07:21:46.704Z,990.99
2016-11-05T07:22:46.720Z,991.02
2016-11-05T07:23:46.737Z,991.02
2016-11-05T07:24:46.751Z,991.07
2016-11-05T07:25:46.766Z,991
2016-11-05T07:26:46.782Z,991
2016-11-05T07:27:46.798Z,991.01
2016-11-05T07:28:46.818Z,991.04
2016-11-05T07:29:46.828Z,991.01
2016-11-05T07:30:46.846Z,991.02
2016-11-05T07:31:46.863Z,990.99
2016-11-05T07:32:46.877Z,991
2016-11-05T07:33:46.890Z,990.97
2016-11-05T07:34:46.905Z,990.98
2016-11-05T07:35:46.921Z,990.94
2016-11-05T07:36:46.936Z,990.91
2016-11-05T07:37:46.952Z,990.9
2016-11-05T07:38:46.968Z,990.91
2016-11-05T07:39:46.985Z,990.88
2016-11-05T07:40:46.998Z,990.83
2016-11-05T07:41:47.014Z,990.88
2016-11-05T07:42:47.030Z,990.85
2016-11-05T07:43:47.045Z,990.84
2016-11-05T07:44:47.061Z,990.77
2016-11-05T07:45:47.078Z,990.73
2016-11-05T07:46:47.093Z,990.75
2016-11-05T07:47:47.110Z,990.73
2016-11-05T07:48:47.123Z,990.68
2016-11-05T07:49:47.140Z,990.64
2016-11-05T07:50:47.157Z,990.65
2016-11-05T07:51:47.170Z,990.65
2016-11-05T07:52:47.188Z,990.62
2016-11-05T07:53:47.203Z,990.54
2016-11-05T07:54:47.216Z,990.5
2016-11-05T07:55:47.232Z,990.55
2016-11-05T07:56:47.249Z,990.58
2016-11-05T07:57:47.264Z,990.55
2016-11-05T07:58:47.279Z,990.53
2016-11-05T07:59:47.295Z,990.51
2016-11-05T08:00:47.311Z,990.5
2016-11-05T08:01:47.332Z,990.43
2016-11-05T08:02:47.342Z,990.4
2016-11-05T08:03:47.357Z,990.36
2016-11-05T08:04:47.374Z,990.36
2016-11-05T08:05:47.438Z,990.35
2016-11-05T08:06:47.404Z,990.27
2016-11-05T08:07:47.421Z,990.27
2016-11-05T08:08:47.436Z,990.29
2016-11-05T08:09:47.789Z,990.26
2016-11-05T08:10:47.468Z,990.31
2016-11-05T08:11:47.482Z,990.31
2016-11-05T08:12:47.499Z,990.3
2016-11-05T08:13:47.513Z,990.26
2016-11-05T08:14:47.531Z,990.29
2016-11-05T08:15:47.544Z,990.21
2016-11-05T08:16:47.561Z,990.2
2016-11-05T08:17:47.583Z,990.2
2016-11-05T08:18:47.591Z,990.2
2016-11-05T08:19:47.608Z,990.18
2016-11-05T08:20:47.622Z,990.14
2016-11-05T08:21:47.639Z,990.14
2016-11-05T08:22:47.658Z,990.14
2016-11-05T08:23:47.670Z,990.14
2016-11-05T08:24:47.685Z,990.08
2016-11-05T08:25:47.701Z,990.03
2016-11-05T08:26:47.716Z,989.98
2016-11-05T08:27:47.734Z,990.03
2016-11-05T08:28:47.749Z,990.07
2016-11-05T08:29:47.764Z,990.16
2016-11-05T08:30:47.780Z,990.16
2016-11-05T08:31:47.795Z,990.21
2016-11-05T08:32:47.811Z,990.23
2016-11-05T08:33:47.827Z,990.13
2016-11-05T08:34:47.843Z,990.1
2016-11-05T08:35:47.858Z,990.05
2016-11-05T08:36:47.874Z,990.07
2016-11-05T08:37:47.890Z,989.96
2016-11-05T08:38:47.906Z,990.05
2016-11-05T08:39:47.922Z,990.01
2016-11-05T08:40:47.936Z,989.98
2016-11-05T08:41:47.953Z,990.05
2016-11-05T08:42:47.968Z,990.02
2016-11-05T08:43:47.984Z,989.96
2016-11-05T08:44:48.000Z,989.88
2016-11-05T08:45:48.016Z,989.87
2016-11-05T08:46:48.031Z,989.92
2016-11-05T08:47:48.047Z,989.92
2016-11-05T08:48:48.062Z,989.91
2016-11-05T08:49:48.078Z,989.88
2016-11-05T08:50:48.096Z,989.93
2016-11-05T08:51:48.110Z,989.94
2016-11-05T08:52:48.126Z,989.95
2016-11-05T08:53:48.145Z,989.94
2016-11-05T08:54:48.157Z,989.86
2016-11-05T08:55:48.173Z,989.87
2016-11-05T08:56:48.188Z,989.86
2016-11-05T08:57:48.204Z,989.84
2016-11-05T08:58:48.221Z,989.87
2016-11-05T08:59:48.241Z,989.84
2016-11-05T09:00:48.252Z,989.87
2016-11-05T09:01:48.267Z,989.84
2016-11-05T09:02:48.289Z,989.86
2016-11-05T09:03:48.301Z,989.87
2016-11-05T09:04:48.314Z,989.85
2016-11-05T09:05:48.331Z,989.82
2016-11-05T09:06:48.347Z,989.85
2016-11-05T09:07:48.363Z,989.8
2016-11-05T09:08:48.379Z,989.76
2016-11-05T09:09:48.394Z,989.72
2016-11-05T09:10:48.411Z,989.64
2016-11-05T09:11:48.426Z,989.67
2016-11-05T09:12:48.442Z,989.69
2016-11-05T09:13:48.459Z,989.72
2016-11-05T09:14:48.474Z,989.81
2016-11-05T09:15:48.489Z,989.91
2016-11-05T09:16:48.505Z,989.93
2016-11-05T09:17:48.521Z,989.99
2016-11-05T09:18:48.537Z,989.97
2016-11-05T09:19:48.554Z,990.02
2016-11-05T09:20:48.571Z,989.99
2016-11-05T09:21:48.586Z,990.02
2016-11-05T09:22:48.601Z,989.97
2016-11-05T09:23:48.617Z,989.9
2016-11-05T09:24:48.633Z,989.91
2016-11-05T09:25:48.650Z,989.85
2016-11-05T09:26:48.664Z,989.87
2016-11-05T09:27:48.684Z,989.86
2016-11-05T09:28:48.697Z,989.89
2016-11-05T09:29:48.717Z,989.82
2016-11-05T09:30:48.728Z,989.85
2016-11-05T09:31:48.745Z,989.89
2016-11-05T09:32:48.767Z,989.89
2016-11-05T09:33:48.776Z,989.91
2016-11-05T09:34:48.792Z,989.85
2016-11-05T09:35:48.811Z,989.8
2016-11-05T09:36:48.825Z,989.75
2016-11-05T09:37:48.841Z,989.74
2016-11-05T09:38:48.856Z,989.71
2016-11-05T09:39:48.873Z,989.74
2016-11-05T09:40:48.888Z,989.73
2016-11-05T09:41:48.904Z,989.75
2016-11-05T09:42:48.920Z,989.8
2016-11-05T09:43:48.936Z,989.82
2016-11-05T09:44:48.953Z,989.84
2016-11-05T09:45:48.968Z,989.81
2016-11-05T09:46:48.986Z,989.75
2016-11-05T09:47:49.006Z,989.76
2016-11-05T09:48:49.016Z,989.76
2016-11-05T09:49:49.033Z,989.68
2016-11-05T09:50:49.050Z,989.61
2016-11-05T09:51:49.070Z,989.57
2016-11-05T09:52:49.081Z,989.54
2016-11-05T09:53:49.097Z,989.55
2016-11-05T09:54:49.114Z,989.6
2016-11-05T09:55:49.129Z,989.57
2016-11-05T09:56:49.152Z,989.58
2016-11-05T09:57:49.164Z,989.58
2016-11-05T09:58:49.178Z,989.62
2016-11-05T09:59:49.198Z,989.58
2016-11-05T10:00:49.211Z,989.58
2016-11-05T10:01:49.227Z,989.53
2016-11-05T10:02:49.242Z,989.57
2016-11-05T10:03:49.258Z,989.62
2016-11-05T10:04:49.279Z,989.59
2016-11-05T10:05:49.303Z,989.49
2016-11-05T10:06:49.317Z,989.5
2016-11-05T10:07:49.324Z,989.41
2016-11-05T10:08:49.340Z,989.42
2016-11-05T10:09:49.359Z,989.35
2016-11-05T10:10:49.373Z,989.33
2016-11-05T10:11:49.390Z,989.39
2016-11-05T10:12:49.405Z,989.42
2016-11-05T10:13:49.421Z,989.39
2016-11-05T10:14:49.438Z,989.39
2016-11-05T10:15:49.667Z,989.41
2016-11-05T10:16:49.471Z,989.36
2016-11-05T10:17:49.486Z,989.36
2016-11-05T10:18:49.503Z,989.34
2016-11-05T10:19:49.519Z,989.27
2016-11-05T10:20:49.536Z,989.24
2016-11-05T10:21:49.552Z,989.22
2016-11-05T10:22:49.569Z,989.16
2016-11-05T10:23:49.585Z,989.23
2016-11-05T10:24:49.600Z,989.2
2016-11-05T10:25:49.617Z,989.15
2016-11-05T10:26:49.634Z,989.12
2016-11-05T10:28:49.667Z,989.05
2016-11-05T10:29:49.685Z,989.02
2016-11-05T10:30:49.699Z,989.06
2016-11-05T10:31:49.715Z,989.09
2016-11-05T10:32:49.736Z,989.12
2016-11-05T10:33:49.749Z,989.1
2016-11-05T10:34:49.765Z,989.08
2016-11-05T10:35:49.780Z,989.06
2016-11-05T10:36:49.797Z,989.03
2016-11-05T10:37:49.814Z,989.03
2016-11-05T10:38:49.831Z,989
2016-11-05T10:39:49.848Z,989.02
2016-11-05T10:40:49.863Z,989.05
2016-11-05T10:41:49.883Z,989.04
2016-11-05T10:42:49.896Z,989.01
2016-11-05T10:43:49.912Z,988.98
2016-11-05T10:44:49.933Z,988.95
2016-11-05T10:45:49.996Z,988.95
2016-11-05T10:46:49.962Z,988.93
2016-11-05T10:47:49.978Z,988.87
2016-11-05T10:48:49.995Z,988.91
2016-11-05T10:49:50.011Z,988.84
2016-11-05T10:50:50.031Z,988.85
2016-11-05T10:51:50.044Z,988.77
2016-11-05T10:52:50.061Z,988.78
2016-11-05T10:53:50.078Z,988.74
2016-11-05T10:54:50.095Z,988.71
2016-11-05T10:55:50.115Z,988.72
2016-11-05T10:56:50.128Z,988.73
2016-11-05T10:57:50.144Z,988.72
2016-11-05T10:58:50.161Z,988.71
2016-11-05T10:59:50.177Z,988.69
2016-11-05T11:00:50.193Z,988.69
2016-11-05T11:01:50.210Z,988.66
2016-11-05T11:02:50.228Z,988.62
2016-11-05T11:03:50.243Z,988.59
2016-11-05T11:04:50.268Z,988.54
2016-11-05T11:05:50.276Z,988.53
2016-11-05T11:06:50.298Z,988.55
2016-11-05T11:07:50.310Z,988.49
2016-11-05T11:08:50.328Z,988.5
2016-11-05T11:09:50.342Z,988.5
2016-11-05T11:10:50.358Z,988.48
2016-11-05T11:11:50.376Z,988.46
2016-11-05T11:12:50.391Z,988.46
2016-11-05T11:13:50.410Z,988.46
2016-11-05T11:14:50.425Z,988.43
2016-11-05T11:15:50.443Z,988.43
2016-11-05T11:16:50.457Z,988.39
2016-11-05T11:17:50.475Z,988.38
2016-11-05T11:18:50.497Z,988.37
2016-11-05T11:19:50.510Z,988.35
2016-11-05T11:20:50.615Z,988.35
2016-11-05T11:21:50.551Z,988.28
2016-11-05T11:22:50.559Z,988.31
2016-11-05T11:23:50.575Z,988.26
2016-11-05T11:24:50.591Z,988.21
2016-11-05T11:25:50.609Z,988.21
2016-11-05T11:26:50.624Z,988.18
2016-11-05T11:27:50.642Z,988.18
2016-11-05T11:28:50.657Z,988.16
2016-11-05T11:29:50.676Z,988.15
2016-11-05T11:30:50.691Z,988.1
2016-11-05T11:31:50.708Z,988.11
2016-11-05T11:32:50.726Z,988.11
2016-11-05T11:33:50.741Z,988.09
2016-11-05T11:34:50.758Z,988.1
2016-11-05T11:35:50.781Z,988.07
2016-11-05T11:36:50.792Z,988.04
2016-11-05T11:37:50.808Z,988.06
2016-11-05T11:38:50.826Z,988.02
2016-11-05T11:39:50.843Z,988.03
2016-11-05T11:40:50.862Z,988.04
2016-11-05T11:41:50.875Z,988.03
2016-11-05T11:42:50.892Z,987.95
2016-11-05T11:43:50.909Z,987.94
2016-11-05T11:44:50.926Z,987.95
2016-11-05T11:45:50.944Z,987.88
2016-11-05T11:46:50.960Z,987.89
2016-11-05T11:47:50.976Z,987.87
2016-11-05T11:48:50.993Z,987.85
2016-11-05T11:49:51.009Z,987.82
2016-11-05T11:50:51.028Z,987.79
2016-11-05T11:51:51.044Z,987.7
2016-11-05T11:52:51.060Z,987.74
2016-11-05T11:53:51.081Z,987.72
2016-11-05T11:54:51.095Z,987.71
2016-11-05T11:55:51.112Z,987.73
2016-11-05T11:56:51.127Z,987.72
2016-11-05T11:57:51.144Z,987.74
2016-11-05T11:58:51.163Z,987.73
2016-11-05T11:59:51.177Z,987.72
2016-11-05T12:00:51.196Z,987.69
2016-11-05T12:01:51.213Z,987.65
2016-11-05T12:02:51.230Z,987.64
2016-11-05T12:03:51.246Z,987.6
2016-11-05T12:04:51.263Z,987.59
2016-11-05T12:05:51.280Z,987.58
2016-11-05T12:06:51.298Z,987.56
2016-11-05T12:07:51.314Z,987.59
2016-11-05T12:08:51.331Z,987.56
2016-11-05T12:09:51.347Z,987.56
2016-11-05T12:10:51.364Z,987.57
2016-11-05T12:11:51.380Z,987.57
2016-11-05T12:12:51.398Z,987.6
2016-11-05T12:13:51.416Z,987.62
2016-11-05T12:14:51.432Z,987.62
2016-11-05T12:15:51.448Z,987.63
2016-11-05T12:16:51.465Z,987.6
2016-11-05T12:17:51.483Z,987.61
2016-11-05T12:18:51.500Z,987.62
2016-11-05T12:19:51.516Z,987.61
2016-11-05T12:20:51.535Z,987.6
2016-11-05T12:21:51.551Z,987.57
2016-11-05T12:22:51.566Z,987.59
2016-11-05T12:23:51.586Z,987.57
2016-11-05T12:24:51.602Z,987.55
2016-11-05T12:25:51.618Z,987.53
2016-11-05T12:26:51.636Z,987.46
2016-11-05T12:27:51.652Z,987.4
2016-11-05T12:28:51.670Z,987.34
2016-11-05T12:29:51.687Z,987.36
2016-11-05T12:30:51.703Z,987.35
2016-11-05T12:31:51.722Z,987.34
2016-11-05T12:32:51.736Z,987.31